createdAt,value
2018-09-26T00:00:58.620Z,1030.63
2018-09-26T00:01:58.592Z,1030.68
2018-09-26T00:02:58.590Z,1030.71
2018-09-26T00:03:58.604Z,1030.74
2018-09-26T00:04:58.640Z,1030.72
2018-09-26T00:05:58.567Z,1030.77
2018-09-26T00:06:58.692Z,1030.78
2018-09-26T00:07:58.556Z,1030.76
2018-09-26T00:08:58.556Z,1030.75
2018-09-26T00:09:58.585Z,1030.74
2018-09-26T00:10:58.581Z,1030.70
2018-09-26T00:11:58.591Z,1030.68
2018-09-26T00:12:58.585Z,1030.68
2018-09-26T00:13:58.587Z,1030.69
2018-09-26T00:14:58.586Z,1030.61
2018-09-26T00:15:58.585Z,1030.59
2018-09-26T00:16:58.590Z,1030.56
2018-09-26T00:17:58.568Z,1030.47
2018-09-26T00:18:58.598Z,1030.45
2018-09-26T00:19:58.573Z,1030.39
2018-09-26T00:20:58.558Z,1030.40
2018-09-26T00:21:58.594Z,1030.32
2018-09-26T00:22:58.580Z,1030.30
2018-09-26T00:24:00.210Z,1030.24
2018-09-26T00:24:58.584Z,1030.27
2018-09-26T00:25:58.602Z,1030.24
2018-09-26T00:26:58.633Z,1030.19
2018-09-26T00:27:58.596Z,1030.17
2018-09-26T00:28:58.623Z,1030.21
2018-09-26T00:29:58.597Z,1030.25
2018-09-26T00:30:58.635Z,1030.23
2018-09-26T00:31:58.593Z,1030.21
2018-09-26T00:32:58.606Z,1030.24
2018-09-26T00:33:58.580Z,1030.24
2018-09-26T00:34:58.574Z,1030.24
2018-09-26T00:35:58.642Z,1030.24
2018-09-26T00:36:58.573Z,1030.29
2018-09-26T00:37:58.606Z,1030.30
2018-09-26T00:38:58.593Z,1030.30
2018-09-26T00:39:58.579Z,1030.29
2018-09-26T00:40:58.611Z,1030.24
2018-09-26T00:41:58.610Z,1030.22
2018-09-26T00:42:58.602Z,1030.23
2018-09-26T00:43:58.597Z,1030.25
2018-09-26T00:44:58.590Z,1030.22
2018-09-26T00:45:58.589Z,1030.23
2018-09-26T00:46:58.566Z,1030.26
2018-09-26T00:47:58.567Z,1030.27
2018-09-26T00:48:58.653Z,1030.29
2018-09-26T00:49:58.587Z,1030.30
2018-09-26T00:50:58.626Z,1030.32
2018-09-26T00:51:58.630Z,1030.31
2018-09-26T00:52:58.592Z,1030.26
2018-09-26T00:53:58.593Z,1030.22
2018-09-26T00:54:58.604Z,1030.22
2018-09-26T00:55:58.608Z,1030.21
2018-09-26T00:56:58.615Z,1030.24
2018-09-26T00:57:58.648Z,1030.23
2018-09-26T00:58:58.636Z,1030.26
2018-09-26T00:59:58.599Z,1030.23
2018-09-26T01:00:58.634Z,1030.23
2018-09-26T01:01:58.625Z,1030.24
2018-09-26T01:02:58.583Z,1030.23
2018-09-26T01:03:58.625Z,1030.25
2018-09-26T01:04:58.595Z,1030.25
2018-09-26T01:05:58.599Z,1030.21
2018-09-26T01:06:58.599Z,1030.22
2018-09-26T01:07:58.620Z,1030.17
2018-09-26T01:08:58.629Z,1030.14
2018-09-26T01:09:58.594Z,1030.06
2018-09-26T01:10:58.617Z,1029.97
2018-09-26T01:11:58.626Z,1029.96
2018-09-26T01:12:58.602Z,1029.94
2018-09-26T01:13:58.592Z,1029.90
2018-09-26T01:14:58.619Z,1029.91
2018-09-26T01:15:58.622Z,1029.93
2018-09-26T01:16:58.595Z,1029.89
2018-09-26T01:17:58.615Z,1029.87
2018-09-26T01:18:58.607Z,1029.87
2018-09-26T01:19:58.606Z,1029.85
2018-09-26T01:20:58.608Z,1029.86
2018-09-26T01:21:58.600Z,1029.79
2018-09-26T01:22:58.615Z,1029.80
2018-09-26T01:23:58.626Z,1029.80
2018-09-26T01:24:58.597Z,1029.79
2018-09-26T01:26:00.191Z,1029.78
2018-09-26T01:26:58.594Z,1029.72
2018-09-26T01:27:58.617Z,1029.73
2018-09-26T01:28:58.633Z,1029.72
2018-09-26T01:29:58.634Z,1029.69
2018-09-26T01:30:58.645Z,1029.68
2018-09-26T01:31:58.648Z,1029.62
2018-09-26T01:32:58.668Z,1029.62
2018-09-26T01:33:58.655Z,1029.63
2018-09-26T01:34:58.641Z,1029.61
2018-09-26T01:35:58.630Z,1029.71
2018-09-26T01:36:58.622Z,1029.67
2018-09-26T01:37:58.608Z,1029.69
2018-09-26T01:38:58.606Z,1029.65
2018-09-26T01:39:58.604Z,1029.61
2018-09-26T01:40:58.628Z,1029.63
2018-09-26T01:41:58.622Z,1029.59
2018-09-26T01:43:00.166Z,1029.63
2018-09-26T01:43:58.621Z,1029.66
2018-09-26T01:44:58.658Z,1029.67
2018-09-26T01:45:58.653Z,1029.70
2018-09-26T01:46:58.612Z,1029.70
2018-09-26T01:48:01.192Z,1029.68
2018-09-26T01:48:58.635Z,1029.67
2018-09-26T01:49:58.636Z,1029.67
2018-09-26T01:50:58.624Z,1029.67
2018-09-26T01:51:58.708Z,1029.67
2018-09-26T01:52:58.618Z,1029.67
2018-09-26T01:53:58.613Z,1029.69
2018-09-26T01:54:58.621Z,1029.70
2018-09-26T01:55:58.628Z,1029.69
2018-09-26T01:56:58.631Z,1029.72
2018-09-26T01:57:59.104Z,1029.68
2018-09-26T01:58:58.636Z,1029.70
2018-09-26T01:59:59.120Z,1029.66
2018-09-26T02:00:58.643Z,1029.65
2018-09-26T02:01:58.675Z,1029.62
2018-09-26T02:02:58.616Z,1029.59
2018-09-26T02:03:58.652Z,1029.62
2018-09-26T02:04:58.666Z,1029.62
2018-09-26T02:05:58.652Z,1029.62
2018-09-26T02:06:58.686Z,1029.60
2018-09-26T02:07:58.637Z,1029.56
2018-09-26T02:08:58.631Z,1029.55
2018-09-26T02:10:01.225Z,1029.56
2018-09-26T02:10:58.616Z,1029.59
2018-09-26T02:11:58.637Z,1029.67
2018-09-26T02:12:58.635Z,1029.65
2018-09-26T02:13:58.664Z,1029.60
2018-09-26T02:14:58.663Z,1029.57
2018-09-26T02:15:58.625Z,1029.52
2018-09-26T02:16:58.668Z,1029.46
2018-09-26T02:17:58.613Z,1029.49
2018-09-26T02:18:58.620Z,1029.51
2018-09-26T02:19:58.628Z,1029.51
2018-09-26T02:20:58.646Z,1029.49
2018-09-26T02:21:58.627Z,1029.48
2018-09-26T02:22:59.617Z,1029.45
2018-09-26T02:23:58.635Z,1029.43
2018-09-26T02:24:58.647Z,1029.41
2018-09-26T02:26:01.209Z,1029.42
2018-09-26T02:27:00.192Z,1029.41
2018-09-26T02:27:58.636Z,1029.43
2018-09-26T02:28:58.650Z,1029.45
2018-09-26T02:29:58.659Z,1029.48
2018-09-26T02:30:58.652Z,1029.53
2018-09-26T02:31:58.643Z,1029.53
2018-09-26T02:32:58.625Z,1029.50
2018-09-26T02:33:58.634Z,1029.44
2018-09-26T02:34:58.670Z,1029.34
2018-09-26T02:35:58.642Z,1029.27
2018-09-26T02:37:01.182Z,1029.21
2018-09-26T02:37:58.628Z,1029.28
2018-09-26T02:38:58.624Z,1029.25
2018-09-26T02:39:58.646Z,1029.30
2018-09-26T02:40:58.651Z,1029.32
2018-09-26T02:41:58.647Z,1029.33
2018-09-26T02:42:58.631Z,1029.30
2018-09-26T02:43:58.648Z,1029.28
2018-09-26T02:45:00.219Z,1029.26
2018-09-26T02:45:58.662Z,1029.25
2018-09-26T02:46:58.639Z,1029.22
2018-09-26T02:47:59.117Z,1029.32
2018-09-26T02:48:59.617Z,1029.33
2018-09-26T02:49:58.619Z,1029.40
2018-09-26T02:51:00.204Z,1029.46
2018-09-26T02:51:58.658Z,1029.49
2018-09-26T02:52:59.615Z,1029.51
2018-09-26T02:53:58.648Z,1029.46
2018-09-26T02:54:58.638Z,1029.43
2018-09-26T02:55:58.644Z,1029.40
2018-09-26T02:56:58.646Z,1029.37
2018-09-26T02:57:58.633Z,1029.38
2018-09-26T02:58:58.663Z,1029.29
2018-09-26T02:59:58.683Z,1029.26
2018-09-26T03:00:58.634Z,1029.20
2018-09-26T03:01:58.647Z,1029.20
2018-09-26T03:02:58.677Z,1029.20
2018-09-26T03:03:58.636Z,1029.21
2018-09-26T03:04:58.638Z,1029.27
2018-09-26T03:05:58.654Z,1029.27
2018-09-26T03:06:58.640Z,1029.23
2018-09-26T03:07:58.657Z,1029.20
2018-09-26T03:08:58.660Z,1029.20
2018-09-26T03:09:59.619Z,1029.19
2018-09-26T03:10:58.741Z,1029.17
2018-09-26T03:11:58.654Z,1029.12
2018-09-26T03:12:58.654Z,1029.14
2018-09-26T03:13:58.642Z,1029.13
2018-09-26T03:14:59.121Z,1029.11
2018-09-26T03:15:58.660Z,1029.08
2018-09-26T03:16:58.638Z,1029.08
2018-09-26T03:17:58.634Z,1029.10
2018-09-26T03:18:58.642Z,1029.09
2018-09-26T03:19:59.123Z,1029.09
2018-09-26T03:20:58.666Z,1029.08
2018-09-26T03:21:58.661Z,1029.08
2018-09-26T03:22:58.654Z,1029.11
2018-09-26T03:23:58.707Z,1029.11
2018-09-26T03:24:58.652Z,1029.11
2018-09-26T03:25:58.669Z,1029.14
2018-09-26T03:26:58.667Z,1029.18
2018-09-26T03:27:58.653Z,1029.17
2018-09-26T03:28:58.688Z,1029.22
2018-09-26T03:29:58.716Z,1029.26
2018-09-26T03:30:58.690Z,1029.26
2018-09-26T03:31:58.705Z,1029.27
2018-09-26T03:32:58.670Z,1029.23
2018-09-26T03:33:58.691Z,1029.22
2018-09-26T03:34:58.634Z,1029.25
2018-09-26T03:35:58.636Z,1029.29
2018-09-26T03:36:58.653Z,1029.29
2018-09-26T03:37:58.666Z,1029.28
2018-09-26T03:38:58.673Z,1029.25
2018-09-26T03:39:58.659Z,1029.26
2018-09-26T03:40:58.653Z,1029.24
2018-09-26T03:41:58.657Z,1029.24
2018-09-26T03:42:58.670Z,1029.25
2018-09-26T03:43:58.672Z,1029.23
2018-09-26T03:44:58.650Z,1029.25
2018-09-26T03:45:58.638Z,1029.23
2018-09-26T03:46:58.636Z,1029.13
2018-09-26T03:47:58.649Z,1029.08
2018-09-26T03:49:00.206Z,1029.07
2018-09-26T03:49:58.644Z,1029.06
2018-09-26T03:50:58.656Z,1029.04
2018-09-26T03:51:58.673Z,1029.06
2018-09-26T03:52:58.680Z,1029.02
2018-09-26T03:53:58.680Z,1029.01
2018-09-26T03:54:58.677Z,1028.92
2018-09-26T03:55:58.672Z,1028.95
2018-09-26T03:57:00.281Z,1028.99
2018-09-26T03:58:00.222Z,1029.02
2018-09-26T03:58:58.664Z,1029.05
2018-09-26T03:59:58.669Z,1029.02
2018-09-26T04:00:58.645Z,1029.00
2018-09-26T04:01:58.686Z,1029.00
2018-09-26T04:02:58.688Z,1028.97
2018-09-26T04:03:58.669Z,1028.99
2018-09-26T04:04:58.761Z,1028.96
2018-09-26T04:05:58.692Z,1028.96
2018-09-26T04:06:58.669Z,1028.96
2018-09-26T04:07:58.667Z,1028.88
2018-09-26T04:08:58.675Z,1028.82
2018-09-26T04:09:58.669Z,1028.79
2018-09-26T04:10:58.746Z,1028.79
2018-09-26T04:11:58.634Z,1028.81
2018-09-26T04:12:58.651Z,1028.84
2018-09-26T04:13:58.674Z,1028.82
2018-09-26T04:14:58.657Z,1028.82
2018-09-26T04:15:58.647Z,1028.86
2018-09-26T04:16:58.663Z,1028.84
2018-09-26T04:17:58.647Z,1028.83
2018-09-26T04:18:58.678Z,1028.80
2018-09-26T04:19:58.669Z,1028.74
2018-09-26T04:20:58.675Z,1028.72
2018-09-26T04:21:58.638Z,1028.76
2018-09-26T04:22:58.682Z,1028.80
2018-09-26T04:23:58.655Z,1028.80
2018-09-26T04:24:58.704Z,1028.79
2018-09-26T04:25:58.706Z,1028.76
2018-09-26T04:26:59.074Z,1028.78
2018-09-26T04:27:58.739Z,1028.80
2018-09-26T04:28:58.673Z,1028.83
2018-09-26T04:29:58.652Z,1028.82
2018-09-26T04:31:00.245Z,1028.80
2018-09-26T04:31:58.652Z,1028.78
2018-09-26T04:32:58.958Z,1028.73
2018-09-26T04:33:58.723Z,1028.74
2018-09-26T04:34:58.656Z,1028.75
2018-09-26T04:35:58.658Z,1028.76
2018-09-26T04:36:58.670Z,1028.73
2018-09-26T04:37:58.664Z,1028.70
2018-09-26T04:38:58.835Z,1028.70
2018-09-26T04:39:58.645Z,1028.72
2018-09-26T04:40:58.676Z,1028.71
2018-09-26T04:41:58.714Z,1028.70
2018-09-26T04:42:58.688Z,1028.73
2018-09-26T04:43:58.654Z,1028.77
2018-09-26T04:44:58.728Z,1028.78
2018-09-26T04:45:58.690Z,1028.78
2018-09-26T04:46:58.668Z,1028.78
2018-09-26T04:47:58.680Z,1028.80
2018-09-26T04:48:58.695Z,1028.78
2018-09-26T04:49:58.684Z,1028.76
2018-09-26T04:51:00.255Z,1028.72
2018-09-26T04:51:58.657Z,1028.72
2018-09-26T04:52:58.670Z,1028.73
2018-09-26T04:53:58.671Z,1028.70
2018-09-26T04:54:58.684Z,1028.72
2018-09-26T04:55:58.668Z,1028.67
2018-09-26T04:56:58.679Z,1028.67
2018-09-26T04:57:58.759Z,1028.65
2018-09-26T04:58:58.655Z,1028.68
2018-09-26T04:59:58.658Z,1028.67
2018-09-26T05:00:58.666Z,1028.67
2018-09-26T05:01:58.664Z,1028.68
2018-09-26T05:02:58.653Z,1028.65
2018-09-26T05:03:58.667Z,1028.69
2018-09-26T05:04:58.666Z,1028.72
2018-09-26T05:05:58.661Z,1028.69
2018-09-26T05:06:58.675Z,1028.73
2018-09-26T05:07:58.645Z,1028.76
2018-09-26T05:08:58.662Z,1028.76
2018-09-26T05:09:58.661Z,1028.75
2018-09-26T05:10:58.699Z,1028.74
2018-09-26T05:11:58.677Z,1028.71
2018-09-26T05:12:58.639Z,1028.75
2018-09-26T05:13:58.731Z,1028.73
2018-09-26T05:14:58.705Z,1028.76
2018-09-26T05:15:58.666Z,1028.74
2018-09-26T05:16:58.663Z,1028.76
2018-09-26T05:17:58.695Z,1028.73
2018-09-26T05:18:58.676Z,1028.68
2018-09-26T05:19:58.718Z,1028.69
2018-09-26T05:20:58.699Z,1028.63
2018-09-26T05:21:58.686Z,1028.64
2018-09-26T05:22:58.699Z,1028.63
2018-09-26T05:23:58.683Z,1028.65
2018-09-26T05:24:58.673Z,1028.65
2018-09-26T05:25:58.698Z,1028.68
2018-09-26T05:26:58.721Z,1028.69
2018-09-26T05:27:58.719Z,1028.73
2018-09-26T05:28:58.685Z,1028.69
2018-09-26T05:29:58.654Z,1028.71
2018-09-26T05:30:58.674Z,1028.72
2018-09-26T05:31:58.674Z,1028.73
2018-09-26T05:32:58.702Z,1028.70
2018-09-26T05:33:58.707Z,1028.76
2018-09-26T05:34:58.677Z,1028.82
2018-09-26T05:35:58.667Z,1028.80
2018-09-26T05:36:58.719Z,1028.75
2018-09-26T05:37:58.686Z,1028.76
2018-09-26T05:38:58.717Z,1028.75
2018-09-26T05:39:58.697Z,1028.75
2018-09-26T05:40:58.675Z,1028.76
2018-09-26T05:41:58.716Z,1028.68
2018-09-26T05:42:58.691Z,1028.63
2018-09-26T05:43:58.646Z,1028.61
2018-09-26T05:44:58.686Z,1028.59
2018-09-26T05:45:58.703Z,1028.61
2018-09-26T05:46:58.689Z,1028.56
2018-09-26T05:47:58.675Z,1028.62
2018-09-26T05:48:58.683Z,1028.54
2018-09-26T05:49:58.686Z,1028.60
2018-09-26T05:50:58.687Z,1028.62
2018-09-26T05:52:01.226Z,1028.61
2018-09-26T05:52:58.678Z,1028.61
2018-09-26T05:53:58.691Z,1028.63
2018-09-26T05:54:58.676Z,1028.67
2018-09-26T05:55:58.681Z,1028.69
2018-09-26T05:56:58.676Z,1028.72
2018-09-26T05:57:58.697Z,1028.69
2018-09-26T05:58:58.674Z,1028.73
2018-09-26T05:59:58.688Z,1028.70
2018-09-26T06:00:58.700Z,1028.71
2018-09-26T06:01:58.694Z,1028.70
2018-09-26T06:02:58.682Z,1028.69
2018-09-26T06:03:58.660Z,1028.74
2018-09-26T06:04:58.681Z,1028.75
2018-09-26T06:05:58.709Z,1028.81
2018-09-26T06:07:00.322Z,1028.80
2018-09-26T06:07:58.688Z,1028.80
2018-09-26T06:08:58.732Z,1028.70
2018-09-26T06:09:58.740Z,1028.63
2018-09-26T06:10:58.708Z,1028.59
2018-09-26T06:11:58.712Z,1028.56
2018-09-26T06:12:58.732Z,1028.53
2018-09-26T06:13:58.663Z,1028.56
2018-09-26T06:14:58.689Z,1028.62
2018-09-26T06:15:58.659Z,1028.68
2018-09-26T06:16:58.729Z,1028.69
2018-09-26T06:17:58.691Z,1028.66
2018-09-26T06:18:58.700Z,1028.56
2018-09-26T06:20:00.253Z,1028.47
2018-09-26T06:20:58.698Z,1028.51
2018-09-26T06:21:58.718Z,1028.48
2018-09-26T06:23:00.255Z,1028.56
2018-09-26T06:23:58.690Z,1028.53
2018-09-26T06:24:58.702Z,1028.47
2018-09-26T06:25:58.750Z,1028.45
2018-09-26T06:26:58.673Z,1028.43
2018-09-26T06:27:58.717Z,1028.40
2018-09-26T06:28:58.713Z,1028.43
2018-09-26T06:29:58.678Z,1028.45
2018-09-26T06:30:58.746Z,1028.44
2018-09-26T06:31:58.674Z,1028.56
2018-09-26T06:32:58.718Z,1028.54
2018-09-26T06:33:58.671Z,1028.53
2018-09-26T06:34:58.747Z,1028.53
2018-09-26T06:35:58.711Z,1028.45
2018-09-26T06:36:58.753Z,1028.41
2018-09-26T06:37:58.700Z,1028.39
2018-09-26T06:38:58.677Z,1028.39
2018-09-26T06:39:58.769Z,1028.45
2018-09-26T06:40:58.710Z,1028.53
2018-09-26T06:41:58.694Z,1028.53
2018-09-26T06:42:58.669Z,1028.59
2018-09-26T06:43:58.702Z,1028.61
2018-09-26T06:44:58.729Z,1028.62
2018-09-26T06:45:58.671Z,1028.59
2018-09-26T06:46:58.738Z,1028.60
2018-09-26T06:47:58.717Z,1028.57
2018-09-26T06:48:58.703Z,1028.51
2018-09-26T06:49:58.690Z,1028.48
2018-09-26T06:50:58.681Z,1028.43
2018-09-26T06:51:58.765Z,1028.49
2018-09-26T06:52:58.735Z,1028.52
2018-09-26T06:53:58.731Z,1028.49
2018-09-26T06:55:01.257Z,1028.55
2018-09-26T06:55:58.703Z,1028.52
2018-09-26T06:56:58.714Z,1028.55
2018-09-26T06:57:58.726Z,1028.56
2018-09-26T06:58:58.694Z,1028.59
2018-09-26T06:59:58.694Z,1028.59
2018-09-26T07:00:58.710Z,1028.59
2018-09-26T07:01:58.701Z,1028.60
2018-09-26T07:02:58.695Z,1028.56
2018-09-26T07:03:58.716Z,1028.55
2018-09-26T07:04:58.725Z,1028.58
2018-09-26T07:05:58.700Z,1028.58
2018-09-26T07:06:58.734Z,1028.60
2018-09-26T07:07:58.764Z,1028.62
2018-09-26T07:08:58.735Z,1028.63
2018-09-26T07:09:58.735Z,1028.63
2018-09-26T07:10:58.762Z,1028.67
2018-09-26T07:11:58.773Z,1028.64
2018-09-26T07:12:58.721Z,1028.67
2018-09-26T07:13:58.707Z,1028.68
2018-09-26T07:14:58.739Z,1028.71
2018-09-26T07:15:58.726Z,1028.72
2018-09-26T07:17:01.278Z,1028.74
2018-09-26T07:17:58.759Z,1028.78
2018-09-26T07:18:58.720Z,1028.75
2018-09-26T07:19:58.750Z,1028.76
2018-09-26T07:20:58.729Z,1028.76
2018-09-26T07:21:58.750Z,1028.81
2018-09-26T07:22:58.707Z,1028.79
2018-09-26T07:23:58.761Z,1028.76
2018-09-26T07:24:58.750Z,1028.75
2018-09-26T07:26:00.072Z,1028.77
2018-09-26T07:26:58.733Z,1028.78
2018-09-26T07:27:58.901Z,1028.75
2018-09-26T07:28:58.769Z,1028.77
2018-09-26T07:29:58.934Z,1028.75
2018-09-26T07:30:58.764Z,1028.78
2018-09-26T07:31:58.755Z,1028.83
2018-09-26T07:32:58.792Z,1028.89
2018-09-26T07:33:58.785Z,1028.85
2018-09-26T07:34:58.756Z,1028.87
2018-09-26T07:35:58.927Z,1028.82
2018-09-26T07:36:58.765Z,1028.79
2018-09-26T07:37:58.779Z,1028.80
2018-09-26T07:39:00.430Z,1028.80
2018-09-26T07:39:58.769Z,1028.82
2018-09-26T07:40:58.776Z,1028.87
2018-09-26T07:41:58.768Z,1028.91
2018-09-26T07:42:59.142Z,1028.89
2018-09-26T07:43:58.742Z,1028.91
2018-09-26T07:44:58.799Z,1028.91
2018-09-26T07:45:58.904Z,1028.88
2018-09-26T07:46:59.265Z,1028.88
2018-09-26T07:47:58.797Z,1028.90
2018-09-26T07:48:58.769Z,1028.93
2018-09-26T07:49:58.805Z,1028.90
2018-09-26T07:50:59.770Z,1028.90
2018-09-26T07:51:58.813Z,1028.85
2018-09-26T07:52:58.837Z,1028.85
2018-09-26T07:53:59.740Z,1028.78
2018-09-26T07:54:58.783Z,1028.84
2018-09-26T07:56:00.678Z,1028.84
2018-09-26T07:56:59.931Z,1028.84
2018-09-26T07:57:58.847Z,1028.85
2018-09-26T07:58:58.782Z,1028.87
2018-09-26T07:59:58.870Z,1028.88
2018-09-26T08:00:58.789Z,1028.89
2018-09-26T08:01:58.789Z,1028.89
2018-09-26T08:02:58.801Z,1028.96
2018-09-26T08:03:58.782Z,1028.95
2018-09-26T08:04:58.789Z,1028.95
2018-09-26T08:05:58.879Z,1028.98
2018-09-26T08:06:59.798Z,1028.90
2018-09-26T08:07:58.780Z,1028.92
2018-09-26T08:08:58.803Z,1028.89
2018-09-26T08:09:58.822Z,1028.89
2018-09-26T08:10:58.832Z,1028.94
2018-09-26T08:11:58.808Z,1028.96
2018-09-26T08:12:58.803Z,1028.99
2018-09-26T08:13:58.825Z,1028.98
2018-09-26T08:14:58.820Z,1029.02
2018-09-26T08:15:59.209Z,1029.01
2018-09-26T08:16:58.876Z,1029.03
2018-09-26T08:17:58.855Z,1029.04
2018-09-26T08:18:58.817Z,1029.08
2018-09-26T08:19:58.878Z,1029.09
2018-09-26T08:20:58.833Z,1029.13
2018-09-26T08:21:58.826Z,1029.15
2018-09-26T08:22:58.830Z,1029.18
2018-09-26T08:23:58.935Z,1029.19
2018-09-26T08:25:03.157Z,1029.17
2018-09-26T08:25:58.847Z,1029.25
2018-09-26T08:26:58.846Z,1029.26
2018-09-26T08:27:58.874Z,1029.27
2018-09-26T08:28:58.847Z,1029.32
2018-09-26T08:30:01.789Z,1029.31
2018-09-26T08:30:58.876Z,1029.30
2018-09-26T08:31:58.870Z,1029.31
2018-09-26T08:32:58.923Z,1029.33
2018-09-26T08:33:58.871Z,1029.38
2018-09-26T08:34:58.902Z,1029.33
2018-09-26T08:35:58.888Z,1029.38
2018-09-26T08:36:58.873Z,1029.43
2018-09-26T08:37:58.854Z,1029.40
2018-09-26T08:38:58.916Z,1029.43
2018-09-26T08:39:58.873Z,1029.42
2018-09-26T08:40:58.881Z,1029.42
2018-09-26T08:41:58.881Z,1029.49
2018-09-26T08:42:58.872Z,1029.48
2018-09-26T08:43:58.902Z,1029.45
2018-09-26T08:45:01.444Z,1029.49
2018-09-26T08:45:58.894Z,1029.49
2018-09-26T08:46:58.898Z,1029.54
2018-09-26T08:47:58.954Z,1029.52
2018-09-26T08:48:58.913Z,1029.60
2018-09-26T08:50:00.776Z,1029.58
2018-09-26T08:51:00.817Z,1029.58
2018-09-26T08:51:58.907Z,1029.60
2018-09-26T08:52:58.912Z,1029.60
2018-09-26T08:54:00.815Z,1029.59
2018-09-26T08:54:59.039Z,1029.64
2018-09-26T08:55:58.958Z,1029.58
2018-09-26T08:56:58.958Z,1029.58
2018-09-26T08:57:58.965Z,1029.61
2018-09-26T08:58:58.953Z,1029.62
2018-09-26T08:59:58.939Z,1029.60
2018-09-26T09:00:58.911Z,1029.64
2018-09-26T09:01:58.942Z,1029.59
2018-09-26T09:03:00.837Z,1029.55
2018-09-26T09:03:58.977Z,1029.59
2018-09-26T09:04:58.953Z,1029.53
2018-09-26T09:05:58.946Z,1029.52
2018-09-26T09:06:59.022Z,1029.51
2018-09-26T09:07:58.953Z,1029.52
2018-09-26T09:08:58.966Z,1029.48
2018-09-26T09:09:58.959Z,1029.50
2018-09-26T09:10:59.051Z,1029.50
2018-09-26T09:11:59.985Z,1029.51
2018-09-26T09:12:58.972Z,1029.52
2018-09-26T09:13:58.987Z,1029.51
2018-09-26T09:15:01.820Z,1029.50
2018-09-26T09:15:59.001Z,1029.45
2018-09-26T09:16:59.004Z,1029.49
2018-09-26T09:17:58.995Z,1029.42
2018-09-26T09:18:59.007Z,1029.43
2018-09-26T09:19:59.008Z,1029.44
2018-09-26T09:20:59.034Z,1029.44
2018-09-26T09:21:59.019Z,1029.42
2018-09-26T09:22:59.020Z,1029.47
2018-09-26T09:23:59.024Z,1029.38
2018-09-26T09:24:59.010Z,1029.42
2018-09-26T09:26:01.790Z,1029.40
2018-09-26T09:26:59.019Z,1029.40
2018-09-26T09:27:59.016Z,1029.38
2018-09-26T09:28:59.021Z,1029.39
2018-09-26T09:29:59.100Z,1029.42
2018-09-26T09:30:59.039Z,1029.46
2018-09-26T09:31:59.074Z,1029.45
2018-09-26T09:32:59.056Z,1029.45
2018-09-26T09:33:59.075Z,1029.44
2018-09-26T09:34:59.057Z,1029.46
2018-09-26T09:35:59.042Z,1029.41
2018-09-26T09:36:59.227Z,1029.36
2018-09-26T09:38:14.401Z,1029.34
2018-09-26T09:38:59.095Z,1029.29
2018-09-26T09:39:59.116Z,1029.26
2018-09-26T09:40:59.137Z,1029.29
2018-09-26T09:41:59.093Z,1029.36
2018-09-26T09:42:59.125Z,1029.38
2018-09-26T09:43:59.223Z,1029.29
2018-09-26T09:44:59.097Z,1029.34
2018-09-26T09:45:59.105Z,1029.32
2018-09-26T09:46:59.167Z,1029.29
2018-09-26T09:47:59.164Z,1029.28
2018-09-26T09:48:59.201Z,1029.24
2018-09-26T09:49:59.133Z,1029.28
2018-09-26T09:51:00.861Z,1029.26
2018-09-26T09:51:59.187Z,1029.24
2018-09-26T09:52:59.153Z,1029.19
2018-09-26T09:53:59.144Z,1029.15
2018-09-26T09:54:59.150Z,1029.19
2018-09-26T09:55:59.146Z,1029.18
2018-09-26T09:56:59.156Z,1029.23
2018-09-26T09:57:59.174Z,1029.25
2018-09-26T09:58:59.131Z,1029.19
2018-09-26T09:59:59.143Z,1029.21
2018-09-26T10:00:59.142Z,1029.22
2018-09-26T10:01:59.258Z,1029.26
2018-09-26T10:03:00.920Z,1029.28
2018-09-26T10:03:59.151Z,1029.27
2018-09-26T10:04:59.221Z,1029.27
2018-09-26T10:05:59.178Z,1029.25
2018-09-26T10:06:59.207Z,1029.22
2018-09-26T10:07:59.198Z,1029.19
2018-09-26T10:08:59.182Z,1029.19
2018-09-26T10:09:59.209Z,1029.15
2018-09-26T10:10:59.185Z,1029.15
2018-09-26T10:11:59.209Z,1029.13
2018-09-26T10:12:59.227Z,1029.09
2018-09-26T10:13:59.223Z,1029.13
2018-09-26T10:14:59.296Z,1029.10
2018-09-26T10:15:59.234Z,1029.13
2018-09-26T10:16:59.237Z,1029.06
2018-09-26T10:17:59.242Z,1029.07
2018-09-26T10:18:59.283Z,1029.06
2018-09-26T10:19:59.286Z,1028.96
2018-09-26T10:20:59.276Z,1028.97
2018-09-26T10:21:59.330Z,1028.92
2018-09-26T10:22:59.326Z,1028.94
2018-09-26T10:23:59.323Z,1028.87
2018-09-26T10:24:59.359Z,1028.83
2018-09-26T10:25:59.760Z,1028.89
2018-09-26T10:26:59.308Z,1028.84
2018-09-26T10:27:59.332Z,1028.87
2018-09-26T10:28:59.311Z,1028.85
2018-09-26T10:29:59.314Z,1028.84
2018-09-26T10:30:59.364Z,1028.87
2018-09-26T10:31:59.376Z,1028.95
2018-09-26T10:32:59.329Z,1028.91
2018-09-26T10:33:59.432Z,1028.91
2018-09-26T10:34:59.382Z,1028.99
2018-09-26T10:35:59.359Z,1028.98
2018-09-26T10:36:59.355Z,1028.97
2018-09-26T10:37:59.362Z,1028.96
2018-09-26T10:38:59.395Z,1029.02
2018-09-26T10:39:59.366Z,1029.02
2018-09-26T10:40:59.345Z,1029.05
2018-09-26T10:41:59.364Z,1028.96
2018-09-26T10:42:59.400Z,1028.95
2018-09-26T10:43:59.384Z,1028.95
2018-09-26T10:44:59.389Z,1028.96
2018-09-26T10:45:59.398Z,1028.88
2018-09-26T10:46:59.403Z,1028.90
2018-09-26T10:47:59.464Z,1028.85
2018-09-26T10:48:59.392Z,1028.88
2018-09-26T10:49:59.398Z,1028.88
2018-09-26T10:50:59.470Z,1028.91
2018-09-26T10:52:00.284Z,1028.85
2018-09-26T10:52:59.415Z,1028.86
2018-09-26T10:53:59.431Z,1028.86
2018-09-26T10:54:59.457Z,1028.86
2018-09-26T10:55:59.481Z,1028.85
2018-09-26T10:56:59.440Z,1028.88
2018-09-26T10:57:59.444Z,1028.82
2018-09-26T10:58:59.458Z,1028.85
2018-09-26T10:59:59.513Z,1028.82
2018-09-26T11:00:59.469Z,1028.80
2018-09-26T11:01:59.481Z,1028.81
2018-09-26T11:02:59.481Z,1028.77
2018-09-26T11:03:59.503Z,1028.80
2018-09-26T11:04:59.510Z,1028.74
2018-09-26T11:05:59.516Z,1028.78
2018-09-26T11:06:59.508Z,1028.78
2018-09-26T11:08:01.360Z,1028.78
2018-09-26T11:08:59.532Z,1028.77
2018-09-26T11:09:59.727Z,1028.72
2018-09-26T11:10:59.524Z,1028.69
2018-09-26T11:11:59.560Z,1028.70
2018-09-26T11:12:59.635Z,1028.68
2018-09-26T11:13:59.599Z,1028.65
2018-09-26T11:14:59.565Z,1028.62
2018-09-26T11:15:59.563Z,1028.66
2018-09-26T11:16:59.589Z,1028.61
2018-09-26T11:17:59.680Z,1028.57
2018-09-26T11:18:59.684Z,1028.48
2018-09-26T11:19:59.670Z,1028.52
2018-09-26T11:20:59.625Z,1028.46
2018-09-26T11:21:59.627Z,1028.39
2018-09-26T11:22:59.669Z,1028.31
2018-09-26T11:23:59.708Z,1028.27
2018-09-26T11:24:59.744Z,1028.29
2018-09-26T11:25:59.688Z,1028.21
2018-09-26T11:26:59.656Z,1028.19
2018-09-26T11:27:59.677Z,1028.10
2018-09-26T11:28:59.701Z,1028.01
2018-09-26T11:29:59.707Z,1028.04
2018-09-26T11:30:59.737Z,1027.99
2018-09-26T11:31:59.872Z,1027.99
2018-09-26T11:32:59.702Z,1027.98
2018-09-26T11:33:59.719Z,1027.99
2018-09-26T11:34:59.689Z,1028.00
2018-09-26T11:35:59.803Z,1027.99
2018-09-26T11:36:59.747Z,1027.96
2018-09-26T11:37:59.709Z,1027.98
2018-09-26T11:38:59.741Z,1027.99
2018-09-26T11:39:59.783Z,1027.94
2018-09-26T11:40:59.731Z,1027.96
2018-09-26T11:41:59.752Z,1027.98
2018-09-26T11:42:59.750Z,1027.99
2018-09-26T11:44:01.388Z,1027.92
2018-09-26T11:44:59.777Z,1027.92
2018-09-26T11:45:59.771Z,1027.97
2018-09-26T11:46:59.773Z,1027.97
2018-09-26T11:47:59.786Z,1027.97
2018-09-26T11:48:59.779Z,1027.96
2018-09-26T11:50:00.825Z,1027.95
2018-09-26T11:50:59.821Z,1027.94
2018-09-26T11:51:59.930Z,1027.93
2018-09-26T11:52:59.811Z,1027.87
2018-09-26T11:53:59.811Z,1027.92
2018-09-26T11:54:59.839Z,1027.89
2018-09-26T11:55:59.813Z,1027.85
2018-09-26T11:56:59.830Z,1027.80
2018-09-26T11:57:59.777Z,1027.84
2018-09-26T11:58:59.819Z,1027.80
2018-09-26T11:59:59.982Z,1027.84
2018-09-26T12:00:59.812Z,1027.75
2018-09-26T12:01:59.817Z,1027.72
2018-09-26T12:02:59.879Z,1027.80
2018-09-26T12:03:59.823Z,1027.74
2018-09-26T12:05:01.444Z,1027.69
2018-09-26T12:05:59.848Z,1027.65